Time;durP1;ratioP1;P1;durP2;ratioP2;P2;SDS_P1;SDS_P2;PMS_P1;PMS_P2;Temp;Humidity;BMP_temperature;BMP_pressure;BME280_temperature;BME280_humidity;BME280_pressure;Samples;Min_cycle;Max_cycle;Signal;HPM_P1;HPM_P2
2023/12/26 00:00:52;;;;;;;;;;;;;;;6.45;100.00;99531.06;5073026;28;19916;-75
2023/12/26 00:03:26;;;;;;;;;;;;;;;6.49;100.00;99525.09;5073382;28;20025;-75
2023/12/26 00:05:51;;;;;;;;;;;;;;;6.31;100.00;99534.69;5071602;28;20003;-74
2023/12/26 00:08:16;;;;;;;;;;;;;;;6.39;100.00;99522.75;5073568;28;20054;-75
2023/12/26 00:10:42;;;;;;;;;;;;;;;6.05;100.00;99561.22;5055644;28;19916;-75
2023/12/26 00:13:07;;;;;;;;;;;;;;;5.84;100.00;99580.91;5073304;28;20279;-74
2023/12/26 00:15:32;;;;;;;;;;;;;;;5.88;100.00;99569.91;5072981;28;19931;-74
2023/12/26 00:17:58;;;;;;;;;;;;;;;5.65;100.00;99604.66;5073133;28;20342;-76
2023/12/26 00:20:23;;;;;;;;;;;;;;;5.79;100.00;99583.47;5072944;28;19916;-75
2023/12/26 00:22:48;;;;;;;;;;;;;;;5.60;100.00;99603.91;5055026;28;19916;-74
2023/12/26 00:25:15;;;;;;;;;;;;;;;5.72;100.00;99586.94;5055294;28;19951;-74
2023/12/26 00:27:42;;;;;;;;;;;;;;;5.57;100.00;99602.25;5072672;28;19916;-75
2023/12/26 00:30:08;;;;;;;;;;;;;;;5.65;100.00;99581.97;5055267;28;19931;-74
2023/12/26 00:32:33;;;;;;;;;;;;;;;5.37;100.00;99613.50;5071735;28;19920;-74
2023/12/26 00:34:58;;;;;;;;;;;;;;;5.47;100.00;99595.69;5071744;28;20019;-74
2023/12/26 00:37:24;;;;;;;;;;;;;;;5.36;100.00;99602.56;5054026;28;19923;-74
2023/12/26 00:39:49;;;;;;;;;;;;;;;5.63;100.00;99566.88;5053902;28;19957;-75
2023/12/26 00:42:15;;;;;;;;;;;;;;;5.43;100.00;99586.50;5072562;28;19924;-74
2023/12/26 00:44:40;;;;;;;;;;;;;;;5.42;100.00;99594.94;5071275;28;19924;-75
2023/12/26 00:47:05;;;;;;;;;;;;;;;5.49;100.00;99566.25;5053802;28;19916;-75
2023/12/26 00:49:31;;;;;;;;;;;;;;;5.40;100.00;99573.13;5053519;28;20294;-74
2023/12/26 00:51:56;;;;;;;;;;;;;;;5.64;100.00;99550.06;5053180;28;19928;-74
2023/12/26 00:54:21;;;;;;;;;;;;;;;5.42;100.00;99568.88;5053733;28;19999;-74
2023/12/26 00:56:46;;;;;;;;;;;;;;;5.50;100.00;99557.00;5053343;28;20227;-75
2023/12/26 00:59:12;;;;;;;;;;;;;;;5.34;100.00;99558.91;5070982;28;19923;-74
2023/12/26 01:01:37;;;;;;;;;;;;;;;5.59;100.00;99542.56;5051961;28;20333;-74
2023/12/26 01:04:02;;;;;;;;;;;;;;;5.61;100.00;99545.06;5070891;28;19931;-74
2023/12/26 01:06:28;;;;;;;;;;;;;;;5.43;100.00;99560.50;5078992;28;20413;-74
2023/12/26 01:08:53;;;;;;;;;;;;;;;5.57;100.00;99534.19;5071433;28;20453;-75
2023/12/26 01:11:18;;;;;;;;;;;;;;;5.50;100.00;99540.22;5053642;28;20386;-74
2023/12/26 01:13:44;;;;;;;;;;;;;;;5.45;100.00;99549.50;5071413;28;20425;-76
2023/12/26 01:16:09;;;;;;;;;;;;;;;5.67;100.00;99519.75;5052967;28;19927;-76
2023/12/26 01:18:34;;;;;;;;;;;;;;;5.80;100.00;99511.16;5071637;28;19939;-73
2023/12/26 01:21:00;;;;;;;;;;;;;;;5.57;100.00;99519.09;5071544;28;19916;-74
2023/12/26 01:23:26;;;;;;;;;;;;;;;5.81;100.00;99487.59;5070667;28;19974;-74
2023/12/26 01:25:51;;;;;;;;;;;;;;;5.81;100.00;99483.38;5071029;28;19959;-74
2023/12/26 01:28:16;;;;;;;;;;;;;;;5.54;100.00;99468.72;5070567;28;19990;-74
2023/12/26 01:30:42;;;;;;;;;;;;;;;5.75;100.00;99432.22;5052742;28;19923;-75
2023/12/26 01:33:08;;;;;;;;;;;;;;;5.60;100.00;99409.81;5053313;28;19923;-74
2023/12/26 01:35:33;;;;;;;;;;;;;;;5.27;100.00;99424.63;5053331;28;19931;-74
2023/12/26 01:37:58;;;;;;;;;;;;;;;5.58;100.00;99378.75;5052739;28;19920;-74
2023/12/26 01:40:23;;;;;;;;;;;;;;;5.55;100.00;99373.75;5052098;28;20357;-75
2023/12/26 01:42:49;;;;;;;;;;;;;;;5.57;100.00;99367.84;5053110;28;19955;-75
2023/12/26 01:45:15;;;;;;;;;;;;;;;5.56;100.00;99372.91;5052849;28;19923;-76
2023/12/26 01:47:40;;;;;;;;;;;;;;;5.11;100.00;99417.34;5053060;28;20030;-74
2023/12/26 01:50:08;;;;;;;;;;;;;;;5.19;100.00;99416.34;5052740;28;20582;-75
2023/12/26 01:52:38;;;;;;;;;;;;;;;5.50;100.00;99386.47;5070128;28;19924;-74
2023/12/26 01:55:04;;;;;;;;;;;;;;;5.58;100.00;99372.03;5052283;28;19923;-75
2023/12/26 01:57:32;;;;;;;;;;;;;;;5.54;100.00;99370.44;5069956;28;19916;-79
2023/12/26 01:59:57;;;;;;;;;;;;;;;5.44;100.00;99373.97;5070761;28;20305;-75
2023/12/26 02:02:22;;;;;;;;;;;;;;;5.79;100.00;99330.44;5070431;28;19973;-75
2023/12/26 02:04:55;;;;;;;;;;;;;;;5.57;100.00;99356.91;5052892;28;19939;-75
2023/12/26 02:07:20;;;;;;;;;;;;;;;5.50;100.00;99358.72;5069870;28;19916;-74
2023/12/26 02:09:45;;;;;;;;;;;;;;;5.48;100.00;99359.63;5051879;28;19923;-75
2023/12/26 02:12:11;;;;;;;;;;;;;;;5.25;100.00;99381.00;5052123;28;19920;-75
2023/12/26 02:14:36;;;;;;;;;;;;;;;5.49;100.00;99351.19;5069554;28;19923;-75
2023/12/26 02:17:03;;;;;;;;;;;;;;;5.39;100.00;99352.22;5052387;28;20366;-75
2023/12/26 02:19:28;;;;;;;;;;;;;;;5.54;100.00;99326.75;5052487;28;19924;-75
2023/12/26 02:21:53;;;;;;;;;;;;;;;5.71;100.00;99302.88;5052501;28;20011;-76
2023/12/26 02:24:19;;;;;;;;;;;;;;;5.44;100.00;99336.16;5070083;28;19916;-74
2023/12/26 02:26:44;;;;;;;;;;;;;;;5.33;100.00;99344.78;5052044;28;19977;-74
2023/12/26 02:29:10;;;;;;;;;;;;;;;5.34;100.00;99361.53;5069188;28;19948;-75
2023/12/26 02:31:37;;;;;;;;;;;;;;;5.22;100.00;99395.31;5052138;28;19917;-74
2023/12/26 02:34:02;;;;;;;;;;;;;;;5.49;100.00;99384.78;5068719;28;19965;-75
2023/12/26 02:36:27;;;;;;;;;;;;;;;5.23;100.00;99417.97;5052122;28;19924;-74
2023/12/26 02:38:53;;;;;;;;;;;;;;;5.11;100.00;99425.72;5069158;28;19920;-75
2023/12/26 02:41:18;;;;;;;;;;;;;;;5.07;100.00;99446.75;5069669;28;19977;-74
2023/12/26 02:43:43;;;;;;;;;;;;;;;4.93;100.00;99452.88;5068937;28;20378;-76
2023/12/26 02:46:08;;;;;;;;;;;;;;;5.21;100.00;99422.19;5049961;28;20049;-75
2023/12/26 02:48:34;;;;;;;;;;;;;;;4.97;100.00;99435.16;5051919;28;19942;-74
2023/12/26 02:50:59;;;;;;;;;;;;;;;4.87;100.00;99453.75;5051516;28;19917;-74
2023/12/26 02:53:25;;;;;;;;;;;;;;;4.87;100.00;99447.91;5051164;28;19924;-74
2023/12/26 02:55:53;;;;;;;;;;;;;;;5.00;100.00;99444.34;5069501;28;19916;-77
2023/12/26 02:58:22;;;;;;;;;;;;;;;4.63;100.00;99483.47;5051474;28;19917;-75
2023/12/26 03:00:47;;;;;;;;;;;;;;;4.92;100.00;99447.00;5051462;28;19916;-76
2023/12/26 03:03:13;;;;;;;;;;;;;;;4.78;100.00;99463.97;5051317;28;19970;-76
2023/12/26 03:05:38;;;;;;;;;;;;;;;4.85;100.00;99447.91;5051633;28;20382;-76
2023/12/26 03:08:03;;;;;;;;;;;;;;;4.78;100.00;99455.56;5051953;28;19926;-76
2023/12/26 03:10:29;;;;;;;;;;;;;;;4.81;100.00;99448.84;5050850;28;19925;-75
2023/12/26 03:12:54;;;;;;;;;;;;;;;4.76;100.00;99453.09;5068371;28;20306;-77
2023/12/26 03:15:19;;;;;;;;;;;;;;;4.68;100.00;99449.84;5050746;28;19972;-76
2023/12/26 03:17:45;;;;;;;;;;;;;;;4.69;100.00;99448.16;5051848;28;19916;-75
2023/12/26 03:20:10;;;;;;;;;;;;;;;4.52;100.00;99450.03;5068824;28;20467;-75
2023/12/26 03:22:35;;;;;;;;;;;;;;;4.60;100.00;99439.03;5050903;28;20382;-74
2023/12/26 03:25:01;;;;;;;;;;;;;;;4.86;100.00;99404.28;5068649;28;19916;-74
2023/12/26 03:27:26;;;;;;;;;;;;;;;4.96;100.00;99395.72;5050485;28;19923;-75
2023/12/26 03:29:51;;;;;;;;;;;;;;;4.77;100.00;99423.72;5050710;28;20314;-74
2023/12/26 03:32:17;;;;;;;;;;;;;;;4.64;100.00;99440.66;5068905;28;20405;-74
2023/12/26 03:34:43;;;;;;;;;;;;;;;4.55;100.00;99457.56;5069108;28;19920;-75
2023/12/26 03:37:08;;;;;;;;;;;;;;;4.62;100.00;99442.34;5050869;28;19920;-76
2023/12/26 03:39:33;;;;;;;;;;;;;;;4.50;100.00;99462.63;5068199;28;19916;-75
2023/12/26 03:41:59;;;;;;;;;;;;;;;4.62;100.00;99449.06;5049800;28;19917;-75
2023/12/26 03:44:24;;;;;;;;;;;;;;;4.49;100.00;99477.75;5068599;28;21401;-76
2023/12/26 03:46:49;;;;;;;;;;;;;;;4.39;100.00;99503.03;5068487;28;19923;-75
2023/12/26 03:49:14;;;;;;;;;;;;;;;4.05;100.00;99541.09;5050906;28;20365;-75
2023/12/26 03:51:40;;;;;;;;;;;;;;;3.96;100.00;99548.75;5050820;28;19916;-74
2023/12/26 03:54:05;;;;;;;;;;;;;;;4.11;100.00;99533.50;5068591;28;19963;-75
2023/12/26 03:56:31;;;;;;;;;;;;;;;3.98;100.00;99552.88;5068591;28;19966;-74
2023/12/26 03:58:57;;;;;;;;;;;;;;;3.81;100.00;99620.06;5068001;28;20333;-77
2023/12/26 04:01:22;;;;;;;;;;;;;;;3.89;100.00;99613.31;5068949;28;19974;-74
2023/12/26 04:03:47;;;;;;;;;;;;;;;3.83;100.00;99637.66;5068576;28;19978;-74
2023/12/26 04:06:15;;;;;;;;;;;;;;;3.66;100.00;99670.44;5051515;28;19924;-75
2023/12/26 04:08:40;;;;;;;;;;;;;;;3.77;100.00;99668.69;5068583;28;20456;-74
2023/12/26 04:11:06;;;;;;;;;;;;;;;3.75;100.00;99670.38;5050317;28;19917;-74
2023/12/26 04:13:31;;;;;;;;;;;;;;;3.47;100.00;99694.81;5068483;28;19916;-74
2023/12/26 04:15:56;;;;;;;;;;;;;;;3.39;100.00;99699.03;5050716;28;19913;-75
2023/12/26 04:18:25;;;;;;;;;;;;;;;3.32;100.00;99694.88;5051039;28;20027;-74
2023/12/26 04:20:50;;;;;;;;;;;;;;;3.63;100.00;99659.53;5067211;28;19913;-75
2023/12/26 04:23:15;;;;;;;;;;;;;;;3.53;100.00;99644.53;5050837;28;19924;-74
2023/12/26 04:25:40;;;;;;;;;;;;;;;3.70;100.00;99440.06;5068362;28;20429;-74
2023/12/26 04:28:06;;;;;;;;;;;;;;;3.97;100.00;99414.63;5068268;28;19923;-73
2023/12/26 04:30:31;;;;;;;;;;;;;;;4.20;100.00;99385.03;5068294;28;20337;-75
2023/12/26 04:32:56;;;;;;;;;;;;;;;4.42;100.00;99358.75;5050030;28;19917;-77
2023/12/26 04:35:22;;;;;;;;;;;;;;;4.55;100.00;99336.78;5072489;28;19939;-74
2023/12/26 04:37:47;;;;;;;;;;;;;;;4.51;100.00;99345.22;5072328;28;20046;-74
2023/12/26 04:40:12;;;;;;;;;;;;;;;4.58;100.00;99337.56;5070945;28;19943;-74
2023/12/26 04:42:38;;;;;;;;;;;;;;;4.62;100.00;99330.78;5070131;28;19920;-74
2023/12/26 04:45:03;;;;;;;;;;;;;;;4.57;100.00;99327.50;5053984;28;19916;-74
2023/12/26 04:47:29;;;;;;;;;;;;;;;4.52;100.00;99330.09;5072189;28;20394;-75
2023/12/26 04:49:54;;;;;;;;;;;;;;;4.54;100.00;99338.44;5070679;28;19946;-74
2023/12/26 04:52:19;;;;;;;;;;;;;;;4.38;100.00;99354.59;5053478;28;19923;-74
2023/12/26 04:54:50;;;;;;;;;;;;;;;4.40;100.00;99341.16;5071048;28;19931;-74
2023/12/26 04:57:16;;;;;;;;;;;;;;;4.68;100.00;99298.81;5053430;28;19931;-74
2023/12/26 04:59:42;;;;;;;;;;;;;;;4.70;100.00;99307.16;5052238;28;19999;-75
2023/12/26 05:02:07;;;;;;;;;;;;;;;4.68;100.00;99311.41;5053798;28;20643;-75
2023/12/26 05:04:33;;;;;;;;;;;;;;;4.75;100.00;99299.56;5071878;28;19921;-76
2023/12/26 05:06:58;;;;;;;;;;;;;;;4.70;100.00;99299.63;5053802;28;19924;-80
2023/12/26 05:09:24;;;;;;;;;;;;;;;4.67;100.00;99304.72;5053583;28;19916;-77
2023/12/26 05:11:49;;;;;;;;;;;;;;;4.49;100.00;99315.06;5070920;28;19922;-75
2023/12/26 05:14:14;;;;;;;;;;;;;;;4.57;100.00;99300.69;5068843;28;20352;-75
2023/12/26 05:16:40;;;;;;;;;;;;;;;4.75;100.00;99275.22;5053342;28;19923;-75
2023/12/26 05:19:07;;;;;;;;;;;;;;;4.73;100.00;99274.41;5071166;28;20011;-76
2023/12/26 05:21:32;;;;;;;;;;;;;;;4.77;100.00;99281.06;5053580;28;19923;-75
2023/12/26 05:23:57;;;;;;;;;;;;;;;4.52;100.00;99324.22;5070728;28;19924;-74
2023/12/26 05:26:22;;;;;;;;;;;;;;;4.75;100.00;99284.47;5070910;28;19920;-74
2023/12/26 05:28:48;;;;;;;;;;;;;;;4.85;100.00;99279.22;5068941;28;19921;-75
2023/12/26 05:31:13;;;;;;;;;;;;;;;4.93;100.00;99281.66;5069958;28;20018;-73
2023/12/26 05:33:38;;;;;;;;;;;;;;;4.85;100.00;99294.31;5070067;28;19963;-74
2023/12/26 05:36:04;;;;;;;;;;;;;;;4.84;100.00;99300.22;5068221;28;19922;-75
2023/12/26 05:38:30;;;;;;;;;;;;;;;4.57;100.00;99343.44;5052773;28;19990;-76
2023/12/26 05:40:55;;;;;;;;;;;;;;;4.30;100.00;99368.97;5053278;28;19948;-75
2023/12/26 05:43:21;;;;;;;;;;;;;;;4.32;100.00;99363.06;5060518;28;19971;-75
2023/12/26 05:45:46;;;;;;;;;;;;;;;4.29;100.00;99375.69;5051714;28;19916;-75
2023/12/26 05:48:11;;;;;;;;;;;;;;;4.39;100.00;99363.84;5070195;28;19966;-76
2023/12/26 05:50:37;;;;;;;;;;;;;;;5.03;100.00;99283.16;5052456;28;19916;-76
2023/12/26 05:53:02;;;;;;;;;;;;;;;4.55;100.00;99350.19;5053055;28;19970;-75
2023/12/26 05:55:28;;;;;;;;;;;;;;;4.78;100.00;99315.44;5051847;28;19924;-75
2023/12/26 05:57:53;;;;;;;;;;;;;;;4.51;100.00;99352.75;5069760;28;19920;-75
2023/12/26 06:00:18;;;;;;;;;;;;;;;4.53;100.00;99349.38;5053009;28;19947;-75
2023/12/26 06:02:58;;;;;;;;;;;;;;;4.76;100.00;99324.69;5070158;28;19916;-75
2023/12/26 06:05:23;;;;;;;;;;;;;;;4.63;100.00;99345.03;5061065;28;20608;-74
2023/12/26 06:07:48;;;;;;;;;;;;;;;4.90;100.00;99317.75;5069864;28;19916;-74
2023/12/26 06:10:15;;;;;;;;;;;;;;;4.83;100.00;99340.56;5052044;28;19920;-75
2023/12/26 06:12:40;;;;;;;;;;;;;;;4.77;100.00;99358.25;5070011;28;19920;-74
2023/12/26 06:15:06;;;;;;;;;;;;;;;4.89;100.00;99353.84;5069871;28;19974;-73
2023/12/26 06:17:31;;;;;;;;;;;;;;;4.80;100.00;99364.06;5051725;28;19928;-75
2023/12/26 06:19:56;;;;;;;;;;;;;;;4.86;100.00;99290.97;5052223;28;19916;-74
2023/12/26 06:22:22;;;;;;;;;;;;;;;5.04;100.00;99351.13;5052111;28;19917;-74
2023/12/26 06:24:47;;;;;;;;;;;;;;;4.95;100.00;99361.31;5067370;28;19938;-73
2023/12/26 06:27:13;;;;;;;;;;;;;;;6.07;100.00;99248.34;5052005;28;20298;-76
2023/12/26 06:29:38;;;;;;;;;;;;;;;9.30;100.00;98823.25;5052046;28;19958;-75
2023/12/26 06:32:03;;;;;;;;;;;;;;;7.19;100.00;99250.69;5051845;28;20007;-73
2023/12/26 06:34:29;;;;;;;;;;;;;;;9.95;100.00;99005.72;5051670;28;19916;-74
2023/12/26 06:36:54;;;;;;;;;;;;;;;10.29;100.00;99095.75;5069243;28;19912;-76
2023/12/26 06:39:19;;;;;;;;;;;;;;;10.05;100.00;99223.66;5064902;28;19970;-74
2023/12/26 06:41:44;;;;;;;;;;;;;;;12.15;100.00;99059.28;5067998;28;19951;-74
2023/12/26 06:44:13;;;;;;;;;;;;;;;11.58;100.00;99252.94;5050204;28;19916;-77
2023/12/26 06:46:41;;;;;;;;;;;;;;;12.14;100.00;99287.75;5050043;28;19985;-75
2023/12/26 06:49:07;;;;;;;;;;;;;;;12.65;100.00;99338.09;5066941;28;19920;-75
2023/12/26 06:51:32;;;;;;;;;;;;;;;13.54;100.00;99335.44;5068265;28;20075;-78
2023/12/26 06:53:57;;;;;;;;;;;;;;;11.60;100.00;99653.41;5067371;28;19946;-76
2023/12/26 06:56:23;;;;;;;;;;;;;;;13.44;100.00;99497.66;5048883;28;19912;-78
2023/12/26 06:58:48;;;;;;;;;;;;;;;14.13;100.00;99524.91;5067628;28;20145;-79
2023/12/26 07:01:13;;;;;;;;;;;;;;;14.35;100.00;99621.88;5048902;28;19924;-76
2023/12/26 07:03:39;;;;;;;;;;;;;;;12.93;100.00;99894.63;5067566;28;19916;-76
2023/12/26 07:06:04;;;;;;;;;;;;;;;12.52;100.00;99978.72;5049757;28;19924;-75
2023/12/26 07:08:29;;;;;;;;;;;;;;;8.72;100.00;100416.06;5049413;28;19955;-75
2023/12/26 07:10:55;;;;;;;;;;;;;;;8.60;100.00;100401.88;5049997;28;19974;-78
2023/12/26 07:13:20;;;;;;;;;;;;;;;8.43;100.00;100398.72;5067429;28;19916;-77
2023/12/26 07:15:46;;;;;;;;;;;;;;;8.46;100.00;100390.22;5067008;28;19917;-76
2023/12/26 07:18:11;;;;;;;;;;;;;;;8.59;100.00;100369.81;5050410;28;20012;-75
2023/12/26 07:20:37;;;;;;;;;;;;;;;8.40;100.00;100393.69;5068051;28;19920;-75
2023/12/26 07:23:03;;;;;;;;;;;;;;;8.79;100.00;100343.31;5049794;28;19931;-78
2023/12/26 07:25:30;;;;;;;;;;;;;;;8.52;100.00;100369.88;5047445;28;19921;-75
2023/12/26 07:27:55;;;;;;;;;;;;;;;8.77;100.00;100346.69;5049937;28;19922;-77
2023/12/26 07:30:22;;;;;;;;;;;;;;;8.44;100.00;100379.28;5049269;28;20002;-77
2023/12/26 07:32:47;;;;;;;;;;;;;;;8.71;100.00;100344.25;5050076;28;20435;-78
2023/12/26 07:35:12;;;;;;;;;;;;;;;8.68;100.00;100339.25;5049079;28;19920;-81
2023/12/26 07:37:38;;;;;;;;;;;;;;;8.36;100.00;100376.84;5067349;28;19920;-77
2023/12/26 07:40:03;;;;;;;;;;;;;;;8.55;100.00;100342.81;5067306;28;19969;-76
2023/12/26 07:42:29;;;;;;;;;;;;;;;8.81;100.00;100318.78;5049024;28;19966;-76
2023/12/26 07:44:54;;;;;;;;;;;;;;;8.94;100.00;100294.91;5049475;28;19971;-74
2023/12/26 07:47:19;;;;;;;;;;;;;;;9.20;100.00;100268.25;5066761;28;19931;-75
2023/12/26 07:49:46;;;;;;;;;;;;;;;9.07;100.00;100287.06;5067386;28;19920;-77
2023/12/26 07:52:11;;;;;;;;;;;;;;;9.43;100.00;100255.13;5047788;28;19917;-75
2023/12/26 07:54:36;;;;;;;;;;;;;;;9.50;100.00;100244.88;5066620;28;19920;-74
2023/12/26 07:57:02;;;;;;;;;;;;;;;11.01;100.00;100090.53;5068406;28;20003;-78
2023/12/26 07:59:28;;;;;;;;;;;;;;;10.91;100.00;100061.97;5050562;28;19924;-75
2023/12/26 08:01:53;;;;;;;;;;;;;;;9.74;100.00;100194.47;5049308;28;20006;-76
2023/12/26 08:04:19;;;;;;;;;;;;;;;9.76;100.00;100197.81;5067749;28;19959;-75
2023/12/26 08:06:44;;;;;;;;;;;;;;;9.88;100.00;100190.78;5050152;28;19920;-77
2023/12/26 08:09:10;;;;;;;;;;;;;;;9.98;100.00;100187.13;5070802;28;19983;-76
2023/12/26 08:11:35;;;;;;;;;;;;;;;10.18;100.00;100174.84;5072647;28;20275;-80
2023/12/26 08:14:06;;;;;;;;;;;;;;;10.28;100.00;100168.69;5070672;28;20451;-75
2023/12/26 08:16:32;;;;;;;;;;;;;;;10.19;100.00;100184.16;5036990;28;19920;-76
2023/12/26 08:18:58;;;;;;;;;;;;;;;10.46;100.00;100159.78;5072253;28;19924;-77
2023/12/26 08:21:24;;;;;;;;;;;;;;;10.38;100.00;100172.69;5054649;28;19978;-77
2023/12/26 08:23:49;;;;;;;;;;;;;;;10.41;100.00;100175.16;5054613;28;19924;-77
2023/12/26 08:26:14;;;;;;;;;;;;;;;10.51;100.00;100159.69;5071828;28;19922;-77
2023/12/26 08:28:41;;;;;;;;;;;;;;;10.55;100.00;100151.94;5054984;28;19917;-76
2023/12/26 08:31:06;;;;;;;;;;;;;;;10.72;100.00;100123.53;5072591;28;19951;-79
2023/12/26 08:33:32;;;;;;;;;;;;;;;10.85;100.00;100112.16;5072522;28;20370;-77
2023/12/26 08:35:57;;;;;;;;;;;;;;;10.97;100.00;100087.22;5054345;28;20390;-77
2023/12/26 08:38:23;;;;;;;;;;;;;;;11.10;100.00;100080.94;5053903;28;19916;-79
2023/12/26 08:40:49;;;;;;;;;;;;;;;11.30;100.00;100045.56;5054922;28;19920;-77
2023/12/26 08:43:14;;;;;;;;;;;;;;;11.46;100.00;100022.19;5054372;28;19923;-77
2023/12/26 08:45:39;;;;;;;;;;;;;;;11.67;100.00;99993.50;5053835;28;19917;-76
2023/12/26 08:48:05;;;;;;;;;;;;;;;11.62;100.00;99990.25;5054152;28;19924;-76
2023/12/26 08:50:30;;;;;;;;;;;;;;;11.88;100.00;99955.47;5070685;28;20433;-76
2023/12/26 08:52:56;;;;;;;;;;;;;;;12.17;100.00;99914.53;5053891;28;20759;-75
2023/12/26 08:55:22;;;;;;;;;;;;;;;12.08;100.00;99922.47;5053642;28;20018;-79
2023/12/26 08:57:47;;;;;;;;;;;;;;;12.31;100.00;99888.53;5072329;28;19919;-75
2023/12/26 09:00:15;;;;;;;;;;;;;;;12.43;100.00;99877.03;5054341;28;19921;-77
2023/12/26 09:02:42;;;;;;;;;;;;;;;12.31;100.00;99892.78;5049025;28;19952;-76
2023/12/26 09:05:08;;;;;;;;;;;;;;;12.65;100.00;99860.88;5054028;28;19924;-81
2023/12/26 09:07:33;;;;;;;;;;;;;;;12.76;100.00;99860.47;5054041;28;19977;-78
2023/12/26 09:09:59;;;;;;;;;;;;;;;12.93;100.00;99868.31;5072324;28;19917;-76
2023/12/26 09:12:24;;;;;;;;;;;;;;;12.75;100.00;99904.72;5053824;28;19916;-76
2023/12/26 09:14:49;;;;;;;;;;;;;;;12.91;100.00;99898.97;5053522;28;19917;-76
2023/12/26 09:17:15;;;;;;;;;;;;;;;13.11;100.00;99902.50;5053470;28;19924;-76
2023/12/26 09:19:41;;;;;;;;;;;;;;;13.38;100.00;99853.72;5071796;28;19935;-76
2023/12/26 09:22:06;;;;;;;;;;;;;;;13.29;100.00;99878.81;5071414;28;19916;-76
2023/12/26 09:24:31;;;;;;;;;;;;;;;12.71;100.00;99964.41;5053749;28;19916;-75
2023/12/26 09:26:56;;;;;;;;;;;;;;;13.26;100.00;99918.03;5053346;28;19916;-75
2023/12/26 09:29:22;;;;;;;;;;;;;;;13.29;100.00;99937.53;5076083;28;19924;-75
2023/12/26 09:31:47;;;;;;;;;;;;;;;13.26;100.00;99974.22;5070872;28;19917;-76
2023/12/26 09:34:12;;;;;;;;;;;;;;;13.41;100.00;99988.91;5053377;28;20436;-75
2023/12/26 09:36:38;;;;;;;;;;;;;;;13.04;100.00;100072.91;5053649;28;20374;-75
2023/12/26 09:39:03;;;;;;;;;;;;;;;13.34;100.00;100091.38;5052743;28;19916;-75
2023/12/26 09:41:28;;;;;;;;;;;;;;;13.50;100.00;100106.06;5050715;28;19916;-75
2023/12/26 09:43:53;;;;;;;;;;;;;;;13.49;100.00;100116.34;5050829;28;20032;-75
2023/12/26 09:46:19;;;;;;;;;;;;;;;13.17;100.00;100170.31;5068344;28;19917;-74
2023/12/26 09:48:45;;;;;;;;;;;;;;;13.53;100.00;100168.94;5050536;28;19916;-74
2023/12/26 09:51:14;;;;;;;;;;;;;;;13.04;100.00;100249.00;5050549;28;19966;-76
2023/12/26 09:53:43;;;;;;;;;;;;;;;13.51;100.00;100265.28;5068992;28;19924;-77
2023/12/26 09:56:09;;;;;;;;;;;;;;;13.59;100.00;100345.00;5068842;28;19913;-86
2023/12/26 09:58:35;;;;;;;;;;;;;;;13.36;100.00;100404.53;5050665;28;19917;-77
2023/12/26 10:01:02;;;;;;;;;;;;;;;13.24;100.00;100427.06;5051045;28;20390;-76
2023/12/26 10:03:28;;;;;;;;;;;;;;;13.21;100.00;100438.19;5069413;28;19916;-76
2023/12/26 10:05:57;;;;;;;;;;;;;;;13.39;100.00;100440.19;5048922;28;20390;-76
2023/12/26 10:08:25;;;;;;;;;;;;;;;13.27;100.00;100461.00;5050746;28;19916;-77
2023/12/26 10:10:50;;;;;;;;;;;;;;;13.29;100.00;100471.19;5051375;28;19916;-83
2023/12/26 10:13:16;;;;;;;;;;;;;;;13.27;100.00;100481.41;5069555;28;19974;-76
2023/12/26 10:15:42;;;;;;;;;;;;;;;13.37;100.00;100459.00;5051212;28;19939;-76
2023/12/26 10:18:07;;;;;;;;;;;;;;;13.33;100.00;100465.09;5050879;28;19924;-76
2023/12/26 10:20:34;;;;;;;;;;;;;;;13.40;100.00;100464.84;5068386;28;19927;-77
2023/12/26 10:23:01;;;;;;;;;;;;;;;13.52;100.00;100451.69;5050968;28;19946;-76
2023/12/26 10:25:27;;;;;;;;;;;;;;;13.52;100.00;100450.84;5054827;28;19999;-76
2023/12/26 10:27:53;;;;;;;;;;;;;;;13.45;100.00;100442.53;5050306;28;20074;-76
2023/12/26 10:30:18;;;;;;;;;;;;;;;13.66;100.00;100418.00;5068263;28;19924;-75
2023/12/26 10:32:43;;;;;;;;;;;;;;;13.54;100.00;100414.16;5049366;28;19916;-78
2023/12/26 10:35:15;;;;;;;;;;;;;;;13.67;100.00;100389.84;5067456;28;19969;-74
2023/12/26 10:37:40;;;;;;;;;;;;;;;13.80;100.00;100372.38;5050565;28;20417;-79
2023/12/26 10:40:07;;;;;;;;;;;;;;;13.67;100.00;100383.91;5070310;28;19924;-76
2023/12/26 10:42:33;;;;;;;;;;;;;;;13.78;100.00;100367.34;5067446;28;19919;-78
2023/12/26 10:45:05;;;;;;;;;;;;;;;13.95;100.00;100343.72;5068106;28;19929;-75
2023/12/26 10:47:31;;;;;;;;;;;;;;;14.31;100.00;100326.22;5068086;28;20166;-75
2023/12/26 10:50:00;;;;;;;;;;;;;;;14.47;100.00;100322.19;5050163;28;20382;-76
2023/12/26 10:52:27;;;;;;;;;;;;;;;14.01;100.00;100340.94;5067765;28;19912;-75
2023/12/26 10:54:54;;;;;;;;;;;;;;;14.10;100.00;100324.44;5050489;28;19925;-76
2023/12/26 10:57:21;;;;;;;;;;;;;;;14.07;100.00;100337.31;5049780;28;19912;-75
2023/12/26 13:53:30;;;;;;;;;;;;;;;17.75;100.00;99654.88;5070474;28;19931;-74
2023/12/26 13:55:55;;;;;;;;;;;;;;;15.87;100.00;99754.00;5070766;28;19916;-76
2023/12/26 13:58:21;;;;;;;;;;;;;;;15.26;100.00;99789.63;5053063;28;19916;-75
2023/12/26 14:00:46;;;;;;;;;;;;;;;15.14;100.00;99797.91;5070705;28;19938;-73
2023/12/26 14:03:12;;;;;;;;;;;;;;;15.69;100.00;99763.50;5070412;28;19916;-74
2023/12/26 14:05:37;;;;;;;;;;;;;;;16.28;100.00;99730.31;5052486;28;19924;-73
2023/12/26 14:08:05;;;;;;;;;;;;;;;15.24;100.00;99771.78;5052557;28;19946;-75
2023/12/26 14:10:30;;;;;;;;;;;;;;;15.23;100.00;99774.41;5053078;28;19916;-75
2023/12/26 14:12:55;;;;;;;;;;;;;;;15.26;100.00;99772.53;5068600;28;19923;-74
2023/12/26 14:15:22;;;;;;;;;;;;;;;15.17;100.00;99770.41;5053133;28;19970;-76
2023/12/26 14:18:11;;;;;;;;;;;;;;;15.24;100.00;99755.56;5052727;28;19927;-76
2023/12/26 14:20:37;;;;;;;;;;;;;;;15.05;100.00;99758.25;5051708;28;19916;-74
2023/12/26 14:23:02;;;;;;;;;;;;;;;14.80;100.00;99788.50;5070127;28;19923;-76
2023/12/26 14:25:28;;;;;;;;;;;;;;;14.63;100.00;99809.78;5052568;28;19920;-76
2023/12/26 14:27:53;;;;;;;;;;;;;;;14.44;100.00;99839.66;5070609;28;19962;-76
2023/12/26 14:30:18;;;;;;;;;;;;;;;14.56;100.00;99826.31;5070848;28;19955;-76
2023/12/26 14:32:44;;;;;;;;;;;;;;;14.53;100.00;99795.75;5070871;28;19964;-76
2023/12/26 14:35:09;;;;;;;;;;;;;;;14.26;100.00;99812.34;5052498;28;19916;-76
2023/12/26 14:37:34;;;;;;;;;;;;;;;14.32;100.00;99803.59;5052804;28;19916;-76
2023/12/26 14:39:59;;;;;;;;;;;;;;;14.32;100.00;99806.97;5052173;28;19924;-77
2023/12/26 14:42:25;;;;;;;;;;;;;;;14.11;100.00;99822.44;5075602;28;20405;-79
2023/12/26 14:44:50;;;;;;;;;;;;;;;14.51;100.00;99783.94;5067793;28;19924;-78
2023/12/26 14:47:15;;;;;;;;;;;;;;;14.03;100.00;99817.66;5048581;28;19920;-77
2023/12/26 14:49:41;;;;;;;;;;;;;;;13.79;100.00;99814.47;5070195;28;19927;-77
2023/12/26 14:52:06;;;;;;;;;;;;;;;13.46;100.00;99808.25;5052621;28;19917;-78
2023/12/26 14:54:31;;;;;;;;;;;;;;;13.36;100.00;99807.00;5052225;28;19922;-77
2023/12/26 14:56:56;;;;;;;;;;;;;;;13.39;100.00;99786.41;5051594;28;20008;-76
2023/12/26 14:59:21;;;;;;;;;;;;;;;13.41;100.00;99787.19;5051510;28;19942;-75
2023/12/26 15:01:47;;;;;;;;;;;;;;;13.54;100.00;99773.00;5068632;28;20031;-75
2023/12/26 15:04:12;;;;;;;;;;;;;;;13.11;100.00;99774.88;5051773;28;19971;-76
2023/12/26 15:06:38;;;;;;;;;;;;;;;12.91;100.00;99775.69;5052232;28;19916;-74
2023/12/26 15:09:03;;;;;;;;;;;;;;;13.26;100.00;99759.75;5050290;28;19920;-76
2023/12/26 15:11:29;;;;;;;;;;;;;;;13.44;100.00;99768.34;5050943;28;19924;-77
2023/12/26 15:13:55;;;;;;;;;;;;;;;13.53;100.00;99762.84;5052080;28;19963;-76
2023/12/26 15:16:20;;;;;;;;;;;;;;;12.89;100.00;99833.59;5052117;28;19959;-75
2023/12/26 15:18:46;;;;;;;;;;;;;;;12.85;100.00;99832.91;5050660;28;19923;-78
2023/12/26 15:21:12;;;;;;;;;;;;;;;13.27;100.00;99832.88;5068337;28;19921;-76
2023/12/26 15:23:37;;;;;;;;;;;;;;;13.02;100.00;99855.16;5068180;28;19912;-75
2023/12/26 15:26:11;;;;;;;;;;;;;;;12.72;100.00;99884.41;5069111;28;19920;-77